createdAt,value
2022-10-01T00:02:03.424Z,16.00
2022-10-01T00:04:31.704Z,16.00
2022-10-01T00:07:04.532Z,16.00
2022-10-01T00:09:33.428Z,16.10
2022-10-01T00:12:02.918Z,16.10
2022-10-01T00:14:45.216Z,16.10
2022-10-01T00:17:14.817Z,16.10
2022-10-01T00:19:43.047Z,16.10
2022-10-01T00:22:11.652Z,16.10
2022-10-01T00:24:40.761Z,16.10
2022-10-01T00:27:10.190Z,16.20
2022-10-01T00:29:38.769Z,16.20
2022-10-01T00:32:07.193Z,16.20
2022-10-01T00:34:36.760Z,16.20
2022-10-01T00:37:05.001Z,16.20
2022-10-01T00:39:33.245Z,16.20
2022-10-01T00:42:02.548Z,16.20
2022-10-01T00:44:36.882Z,16.20
2022-10-01T00:47:13.895Z,16.20
2022-10-01T00:49:46.473Z,16.30
2022-10-01T00:52:19.583Z,16.30
2022-10-01T00:54:50.841Z,16.30
2022-10-01T00:57:23.064Z,16.30
2022-10-01T00:59:52.592Z,16.30
2022-10-01T01:02:21.956Z,16.30
2022-10-01T01:04:51.865Z,16.30
2022-10-01T01:07:20.829Z,16.30
2022-10-01T01:09:51.867Z,16.30
2022-10-01T01:12:41.133Z,16.30
2022-10-01T01:15:17.733Z,16.40
2022-10-01T01:17:55.921Z,16.40
2022-10-01T01:20:44.868Z,16.40
2022-10-01T01:23:35.230Z,16.40
2022-10-01T01:26:16.328Z,16.40
2022-10-01T01:28:50.493Z,16.40
2022-10-01T01:31:23.616Z,16.40
2022-10-01T01:33:55.136Z,16.40
2022-10-01T01:36:29.718Z,16.40
2022-10-01T01:39:01.826Z,16.40
2022-10-01T01:41:35.133Z,16.40
2022-10-01T01:44:09.499Z,16.40
2022-10-01T01:46:42.312Z,16.50
2022-10-01T01:49:10.796Z,16.40
2022-10-01T01:51:44.589Z,16.50
2022-10-01T01:54:13.079Z,16.50
2022-10-01T01:56:41.444Z,16.50
2022-10-01T01:59:11.763Z,16.50
2022-10-01T02:01:42.523Z,16.50
2022-10-01T02:04:24.051Z,16.50
2022-10-01T02:07:19.521Z,16.50
2022-10-01T02:09:53.230Z,16.50
2022-10-01T02:12:32.678Z,16.50
2022-10-01T02:15:10.720Z,16.60
2022-10-01T02:17:50.668Z,16.60
2022-10-01T02:20:22.356Z,16.60
2022-10-01T02:22:55.442Z,16.60
2022-10-01T02:25:27.043Z,16.60
2022-10-01T02:28:00.978Z,16.60
2022-10-01T02:30:35.536Z,16.60
2022-10-01T02:33:06.045Z,16.60
2022-10-01T02:35:37.812Z,16.60
2022-10-01T02:38:07.987Z,16.60
2022-10-01T02:40:39.238Z,16.60
2022-10-01T02:43:12.198Z,16.60
2022-10-01T02:45:44.782Z,16.50
2022-10-01T02:48:18.045Z,16.60
2022-10-01T02:50:51.217Z,16.60
2022-10-01T02:53:23.080Z,16.60
2022-10-01T02:55:53.567Z,16.60
2022-10-01T02:58:21.067Z,16.60
2022-10-01T03:00:50.763Z,16.60
2022-10-01T03:03:18.983Z,16.60
2022-10-01T03:05:47.181Z,16.60
2022-10-01T03:08:15.523Z,16.60
2022-10-01T03:10:46.750Z,16.60
2022-10-01T03:13:15.302Z,16.60
2022-10-01T03:15:43.591Z,16.60
2022-10-01T03:18:13.237Z,16.60
2022-10-01T03:20:41.442Z,16.60
2022-10-01T03:23:09.669Z,16.60
2022-10-01T03:25:37.886Z,16.60
2022-10-01T03:28:06.175Z,16.60
2022-10-01T03:30:35.232Z,16.60
2022-10-01T03:33:03.467Z,16.60
2022-10-01T03:35:33.045Z,16.60
2022-10-01T03:38:02.788Z,16.60
2022-10-01T03:40:33.433Z,16.60
2022-10-01T03:43:02.052Z,16.50
2022-10-01T03:45:30.366Z,16.60
2022-10-01T03:47:58.620Z,16.50
2022-10-01T03:50:26.794Z,16.50
2022-10-01T03:52:57.048Z,16.50
2022-10-01T03:55:27.738Z,16.50
2022-10-01T03:57:56.104Z,16.50
2022-10-01T04:00:24.398Z,16.50
2022-10-01T04:02:52.707Z,16.50
2022-10-01T04:05:20.937Z,16.50
2022-10-01T04:07:50.318Z,16.60
2022-10-01T04:10:19.965Z,16.50
2022-10-01T04:12:48.196Z,16.50
2022-10-01T04:15:16.858Z,16.60
2022-10-01T04:17:46.130Z,16.60
2022-10-01T04:20:14.496Z,16.50
2022-10-01T04:22:43.376Z,16.60
2022-10-01T04:25:12.373Z,16.50
2022-10-01T04:27:43.601Z,16.50
2022-10-01T04:30:12.252Z,16.50
2022-10-01T04:32:40.453Z,16.50
2022-10-01T04:35:11.565Z,16.50
2022-10-01T04:37:40.109Z,16.50
2022-10-01T04:40:10.619Z,16.50
2022-10-01T04:42:43.544Z,16.50
2022-10-01T04:45:13.438Z,16.50
2022-10-01T04:47:49.284Z,16.50
2022-10-01T04:50:18.511Z,16.40
2022-10-01T04:52:51.429Z,16.40
2022-10-01T04:55:21.408Z,16.40
2022-10-01T04:57:51.114Z,16.40
2022-10-01T05:00:21.788Z,16.40
2022-10-01T05:02:51.211Z,16.40
2022-10-01T05:05:21.200Z,16.40
2022-10-01T05:07:49.933Z,16.40
2022-10-01T05:10:20.596Z,16.30
2022-10-01T05:13:03.889Z,16.30
2022-10-01T05:15:33.686Z,16.40
2022-10-01T05:18:02.342Z,16.40
2022-10-01T05:20:30.641Z,16.40
2022-10-01T05:22:58.884Z,16.40
2022-10-01T05:25:27.413Z,16.40
2022-10-01T05:28:05.010Z,16.40
2022-10-01T05:30:35.619Z,16.40
2022-10-01T05:33:06.026Z,16.40
2022-10-01T05:35:34.876Z,16.40
2022-10-01T05:38:17.207Z,16.40
2022-10-01T05:40:47.316Z,16.40
2022-10-01T05:43:16.550Z,16.40
2022-10-01T05:46:48.569Z,16.50
2022-10-01T05:49:54.344Z,16.40
2022-10-01T05:52:41.713Z,16.40
2022-10-01T05:55:22.645Z,16.40
2022-10-01T05:58:31.379Z,16.40
2022-10-01T06:01:14.819Z,16.40
2022-10-01T06:03:51.752Z,16.40
2022-10-01T06:06:52.626Z,16.40
2022-10-01T06:09:32.296Z,16.40
2022-10-01T06:12:13.652Z,16.40
2022-10-01T06:15:50.190Z,16.40
2022-10-01T06:18:49.794Z,16.40
2022-10-01T06:21:18.427Z,16.40
2022-10-01T06:24:28.244Z,16.40
2022-10-01T06:27:30.437Z,16.50
2022-10-01T06:30:38.817Z,16.50
2022-10-01T06:36:46.649Z,16.50
2022-10-01T06:39:32.832Z,16.50
2022-10-01T06:42:33.454Z,16.50
2022-10-01T06:48:55.390Z,16.50
2022-10-01T06:51:43.989Z,16.50
2022-10-01T06:54:11.587Z,16.50
2022-10-01T06:56:41.525Z,16.60
2022-10-01T06:59:09.979Z,16.60
2022-10-01T07:01:38.885Z,16.60
2022-10-01T07:04:07.667Z,16.60
2022-10-01T07:06:36.129Z,16.60
2022-10-01T07:09:05.337Z,16.60
2022-10-01T07:11:42.979Z,16.60
2022-10-01T07:14:13.091Z,16.70
2022-10-01T07:16:41.563Z,16.60
2022-10-01T07:19:10.306Z,16.60
2022-10-01T07:21:43.939Z,16.60
2022-10-01T07:24:12.607Z,16.60
2022-10-01T07:26:41.312Z,16.60
2022-10-01T07:29:12.217Z,16.60
2022-10-01T07:31:40.717Z,16.60
2022-10-01T07:34:09.175Z,16.60
2022-10-01T07:36:37.592Z,16.70
2022-10-01T07:39:06.288Z,16.90
2022-10-01T07:41:35.005Z,17.30
2022-10-01T07:44:05.673Z,18.00
2022-10-01T07:46:36.271Z,18.30
2022-10-01T07:49:32.773Z,18.50
2022-10-01T07:52:01.311Z,18.60
2022-10-01T07:54:30.183Z,18.50
2022-10-01T07:57:00.973Z,18.40
2022-10-01T07:59:29.418Z,18.70
2022-10-01T08:02:13.097Z,19.30
2022-10-01T08:04:58.768Z,19.30
2022-10-01T08:07:27.324Z,19.10
2022-10-01T08:09:57.031Z,19.20
2022-10-01T08:12:30.436Z,19.10
2022-10-01T08:14:58.901Z,19.20
2022-10-01T08:17:29.656Z,19.70
2022-10-01T08:19:58.212Z,19.80
2022-10-01T08:22:42.490Z,19.80
2022-10-01T08:25:11.436Z,19.80
2022-10-01T08:27:39.926Z,20.00
2022-10-01T08:30:09.809Z,20.10
2022-10-01T08:32:39.843Z,20.10
2022-10-01T08:35:09.188Z,20.30
2022-10-01T08:37:37.759Z,20.70
2022-10-01T08:40:07.496Z,21.20
2022-10-01T08:42:55.511Z,21.30
2022-10-01T08:45:27.311Z,21.40
2022-10-01T08:48:18.071Z,22.10
2022-10-01T08:50:53.871Z,22.50
2022-10-01T08:53:30.717Z,22.40
2022-10-01T08:56:01.139Z,22.50
2022-10-01T08:58:38.210Z,22.70
2022-10-01T09:01:06.991Z,22.90
2022-10-01T09:03:37.495Z,23.10
2022-10-01T09:06:19.758Z,23.00
2022-10-01T09:08:59.168Z,22.50
2022-10-01T09:11:44.615Z,21.90
2022-10-01T09:14:48.130Z,21.30
2022-10-01T09:17:30.538Z,21.00
2022-10-01T09:20:12.897Z,20.80
2022-10-01T09:22:45.236Z,20.70
2022-10-01T09:25:22.125Z,21.20
2022-10-01T09:27:52.253Z,22.20
2022-10-01T09:30:23.806Z,22.20
2022-10-01T09:32:57.344Z,22.00
2022-10-01T09:35:36.712Z,21.60
2022-10-01T09:38:11.619Z,21.70
2022-10-01T09:40:47.797Z,21.70
2022-10-01T09:43:21.983Z,22.10
2022-10-01T09:48:40.053Z,22.00
2022-10-01T09:51:14.097Z,22.00
2022-10-01T09:53:48.143Z,21.90
2022-10-01T09:56:23.503Z,22.10
2022-10-01T09:58:56.483Z,22.30
2022-10-01T10:01:47.589Z,22.30
2022-10-01T10:04:23.421Z,22.40
2022-10-01T10:07:04.587Z,22.60
2022-10-01T10:09:36.291Z,22.50
2022-10-01T10:12:10.627Z,22.30
2022-10-01T10:14:41.566Z,22.30
2022-10-01T10:17:15.859Z,22.50
2022-10-01T10:19:49.454Z,22.80
2022-10-01T10:22:25.243Z,22.80
2022-10-01T10:25:18.903Z,22.60
2022-10-01T10:27:55.787Z,22.90
2022-10-01T10:30:26.398Z,22.90
2022-10-01T10:33:03.515Z,22.80
2022-10-01T10:35:49.710Z,23.00
2022-10-01T10:38:28.709Z,23.10
2022-10-01T10:40:57.793Z,23.30
2022-10-01T10:43:30.574Z,23.00
2022-10-01T10:45:59.838Z,23.10
2022-10-01T10:49:44.438Z,23.00
2022-10-01T10:52:23.702Z,22.80
2022-10-01T10:54:55.042Z,22.40
2022-10-01T10:57:28.183Z,22.30
2022-10-01T11:00:23.608Z,22.10
2022-10-01T11:02:56.977Z,21.90
2022-10-01T11:05:27.561Z,21.70
2022-10-01T11:07:58.741Z,21.50
2022-10-01T11:10:41.981Z,21.60
2022-10-01T11:13:25.686Z,21.50
2022-10-01T11:16:15.028Z,22.20
2022-10-01T11:18:56.193Z,22.50
2022-10-01T11:21:45.274Z,22.90
2022-10-01T11:24:29.593Z,23.20
2022-10-01T11:27:07.695Z,23.40
2022-10-01T11:29:54.834Z,23.60
2022-10-01T11:32:34.149Z,23.80
2022-10-01T11:35:37.907Z,24.00
2022-10-01T11:38:39.745Z,24.10
2022-10-01T11:41:23.841Z,24.20
2022-10-01T11:43:57.854Z,24.30
2022-10-01T11:46:43.003Z,24.20
2022-10-01T11:49:46.644Z,24.20
2022-10-01T11:52:24.942Z,24.10
2022-10-01T11:55:20.821Z,23.90
2022-10-01T11:58:11.262Z,23.80
2022-10-01T12:00:44.428Z,24.10
2022-10-01T12:03:20.811Z,24.20
2022-10-01T12:05:50.546Z,24.20
2022-10-01T12:08:25.327Z,24.20
2022-10-01T12:10:59.293Z,24.20
2022-10-01T12:13:34.418Z,24.10
2022-10-01T12:16:16.314Z,24.10
2022-10-01T12:18:56.195Z,24.00
2022-10-01T12:21:28.544Z,23.90
2022-10-01T12:24:02.711Z,23.70
2022-10-01T12:26:41.856Z,23.70
2022-10-01T12:29:18.221Z,23.60
2022-10-01T12:31:57.709Z,23.60
2022-10-01T12:34:37.821Z,23.70
2022-10-01T12:37:19.248Z,23.60
2022-10-01T12:40:04.069Z,23.60
2022-10-01T12:42:54.785Z,23.70
2022-10-01T12:45:31.515Z,23.90
2022-10-01T12:48:10.524Z,24.00
2022-10-01T12:50:48.366Z,23.90
2022-10-01T12:53:25.896Z,23.70
2022-10-01T12:56:07.236Z,23.50
2022-10-01T12:59:09.915Z,23.30
2022-10-01T13:01:54.656Z,23.20
2022-10-01T13:04:58.877Z,23.20
2022-10-01T13:08:20.242Z,23.10
2022-10-01T13:11:05.689Z,23.00
2022-10-01T13:13:35.220Z,23.00
2022-10-01T13:16:11.614Z,23.00
2022-10-01T13:18:52.198Z,23.00
2022-10-01T13:21:32.384Z,23.00
2022-10-01T13:24:05.503Z,23.00
2022-10-01T13:26:38.047Z,22.80
2022-10-01T13:29:22.764Z,22.60
2022-10-01T13:31:59.294Z,22.60
2022-10-01T13:34:52.013Z,22.60
2022-10-01T13:37:37.660Z,22.50
2022-10-01T13:40:22.857Z,22.50
2022-10-01T13:42:53.396Z,22.50
2022-10-01T13:45:28.171Z,22.40
2022-10-01T13:48:25.971Z,22.30
2022-10-01T13:50:58.368Z,22.30
2022-10-01T13:53:29.824Z,22.20
2022-10-01T13:58:43.422Z,22.10
2022-10-01T14:01:31.553Z,21.90
2022-10-01T14:04:06.573Z,21.90
2022-10-01T14:06:42.971Z,21.80
2022-10-01T14:09:21.532Z,21.70
2022-10-01T14:12:09.989Z,21.70
2022-10-01T14:14:58.463Z,21.60
2022-10-01T14:17:30.266Z,21.60
2022-10-01T14:19:59.610Z,21.60
2022-10-01T14:22:50.572Z,21.50
2022-10-01T14:25:34.279Z,21.50
2022-10-01T14:28:32.637Z,21.50
2022-10-01T14:31:07.965Z,21.50
2022-10-01T14:34:07.791Z,21.50
2022-10-01T14:36:38.480Z,21.50
2022-10-01T14:39:15.510Z,21.50
2022-10-01T14:41:46.591Z,21.50
2022-10-01T14:44:24.403Z,21.50
2022-10-01T14:46:56.128Z,21.50
2022-10-01T14:49:52.460Z,21.60
2022-10-01T14:52:26.968Z,21.60
2022-10-01T14:55:01.996Z,21.50
2022-10-01T14:57:35.662Z,21.50
2022-10-01T15:00:10.680Z,21.50
2022-10-01T15:02:46.524Z,21.40
2022-10-01T15:05:23.002Z,21.30
2022-10-01T15:07:51.903Z,21.30
2022-10-01T15:10:24.060Z,21.30
2022-10-01T15:12:55.507Z,21.30
2022-10-01T15:15:35.302Z,21.30
2022-10-01T15:18:05.584Z,21.30
2022-10-01T15:20:34.522Z,21.20
2022-10-01T15:23:07.713Z,21.20
2022-10-01T15:25:37.368Z,21.20
2022-10-01T15:28:16.989Z,21.10
2022-10-01T15:30:46.363Z,21.10
2022-10-01T15:33:27.533Z,21.10
2022-10-01T15:35:59.137Z,21.00
2022-10-01T15:38:30.956Z,21.00
2022-10-01T15:41:32.628Z,21.00
2022-10-01T15:44:05.296Z,21.00
2022-10-01T15:46:36.378Z,20.90
2022-10-01T15:49:20.920Z,20.90
2022-10-01T15:52:11.709Z,20.90
2022-10-01T15:54:42.639Z,20.90
2022-10-01T15:57:17.011Z,20.90
2022-10-01T15:59:48.327Z,20.90
2022-10-01T16:02:23.649Z,20.90
2022-10-01T16:04:56.697Z,20.80
2022-10-01T16:07:31.015Z,20.80
2022-10-01T16:10:01.441Z,20.80
2022-10-01T16:12:30.493Z,20.70
2022-10-01T16:15:02.184Z,20.70
2022-10-01T16:17:35.668Z,20.60
2022-10-01T16:20:46.634Z,20.60
2022-10-01T16:23:53.057Z,20.60
2022-10-01T16:26:39.448Z,20.50
2022-10-01T16:29:20.818Z,20.50
2022-10-01T16:31:51.710Z,20.40
2022-10-01T16:34:21.671Z,20.40
2022-10-01T16:36:53.675Z,20.40
2022-10-01T16:39:23.215Z,20.40
2022-10-01T16:42:12.091Z,20.30
2022-10-01T16:44:41.431Z,20.30
2022-10-01T16:47:21.682Z,20.30
2022-10-01T16:49:53.141Z,20.20
2022-10-01T16:52:23.148Z,20.20
2022-10-01T16:54:51.938Z,20.20
2022-10-01T16:57:20.642Z,20.10
2022-10-01T16:59:49.145Z,20.10
2022-10-01T17:02:19.403Z,20.00
2022-10-01T17:04:48.395Z,20.00
2022-10-01T17:07:17.315Z,19.90
2022-10-01T17:09:46.153Z,19.90
2022-10-01T17:12:14.894Z,19.90
2022-10-01T17:14:43.542Z,19.90
2022-10-01T17:19:57.854Z,19.70
2022-10-01T17:22:26.743Z,19.70
2022-10-01T17:24:55.518Z,19.70
2022-10-01T17:27:24.335Z,19.60
2022-10-01T17:29:54.382Z,19.60
2022-10-01T17:32:23.395Z,19.60
2022-10-01T17:34:54.634Z,19.50
2022-10-01T17:37:24.813Z,19.40
2022-10-01T17:39:53.699Z,19.40
2022-10-01T17:57:12.103Z,19.10
2022-10-01T17:59:40.883Z,19.10
2022-10-01T18:02:36.531Z,19.00
2022-10-01T18:05:00.076Z,19.00
2022-10-01T18:07:28.884Z,19.00
2022-10-01T18:10:01.032Z,18.90
2022-10-01T18:12:33.471Z,18.90
2022-10-01T18:15:03.005Z,18.80
2022-10-01T18:17:36.660Z,18.80
2022-10-01T18:20:06.627Z,18.80
2022-10-01T18:22:35.768Z,18.70
2022-10-01T18:25:08.995Z,18.70
2022-10-01T18:27:39.073Z,18.60
2022-10-01T18:30:33.588Z,18.60
2022-10-01T18:33:03.380Z,18.40
2022-10-01T18:35:35.711Z,18.40
2022-10-01T18:38:10.809Z,18.40
2022-10-01T18:40:45.372Z,18.30
2022-10-01T18:43:22.456Z,18.30
2022-10-01T18:46:21.726Z,18.20
2022-10-01T18:49:20.153Z,18.20
2022-10-01T18:52:01.264Z,18.10
2022-10-01T18:54:53.161Z,18.10
2022-10-01T18:57:42.432Z,18.10
2022-10-01T19:00:15.464Z,18.00
2022-10-01T19:03:04.096Z,18.00
2022-10-01T19:06:11.512Z,18.00
2022-10-01T19:08:59.644Z,18.00
2022-10-01T19:11:40.789Z,18.00
2022-10-01T19:14:34.910Z,18.00
2022-10-01T19:17:18.634Z,17.90
2022-10-01T19:20:01.113Z,17.90
2022-10-01T19:22:44.285Z,17.90
2022-10-01T19:25:20.867Z,17.90
2022-10-01T19:28:04.258Z,17.90
2022-10-01T19:30:42.598Z,17.90
2022-10-01T19:33:14.288Z,17.90
2022-10-01T19:35:47.758Z,17.90
2022-10-01T19:38:20.772Z,17.90
2022-10-01T19:40:53.835Z,17.90
2022-10-01T19:43:27.263Z,17.80
2022-10-01T19:46:00.072Z,17.80
2022-10-01T19:48:37.841Z,17.90
2022-10-01T19:51:10.146Z,17.80
2022-10-01T19:53:39.872Z,17.80
2022-10-01T19:56:12.394Z,17.80
2022-10-01T19:58:40.976Z,17.80
2022-10-01T20:01:16.835Z,17.80
2022-10-01T20:03:52.180Z,17.80
2022-10-01T20:06:26.172Z,17.80
2022-10-01T20:09:00.185Z,17.80
2022-10-01T20:11:32.050Z,17.80
2022-10-01T20:14:40.273Z,17.80
2022-10-01T20:17:19.814Z,17.80
2022-10-01T20:19:56.466Z,17.80
2022-10-01T20:22:35.051Z,17.80
2022-10-01T20:25:11.666Z,17.80
2022-10-01T20:27:49.565Z,17.80
2022-10-01T20:30:20.117Z,17.80
2022-10-01T20:32:59.831Z,17.70
2022-10-01T20:35:36.359Z,17.70
2022-10-01T20:38:10.982Z,17.70
2022-10-01T20:40:49.521Z,17.70
2022-10-01T20:43:23.187Z,17.70
2022-10-01T20:45:54.128Z,17.70
2022-10-01T20:48:42.851Z,17.70
2022-10-01T20:51:17.199Z,17.70
2022-10-01T20:53:51.633Z,17.70
2022-10-01T20:56:25.359Z,17.70
2022-10-01T20:58:57.434Z,17.70
2022-10-01T21:01:30.195Z,17.70
2022-10-01T21:04:04.778Z,17.70
2022-10-01T21:06:38.556Z,17.70
2022-10-01T21:09:16.056Z,17.70
2022-10-01T21:11:49.591Z,17.70
2022-10-01T21:14:24.865Z,17.70
2022-10-01T21:17:26.329Z,17.70
2022-10-01T21:20:08.116Z,17.70
2022-10-01T21:22:47.496Z,17.70
2022-10-01T21:25:25.007Z,17.70
2022-10-01T21:28:12.348Z,17.70
2022-10-01T21:30:55.832Z,17.80
2022-10-01T21:33:27.455Z,17.70
2022-10-01T21:36:02.424Z,17.70
2022-10-01T21:38:41.037Z,17.70
2022-10-01T21:41:32.877Z,17.70
2022-10-01T21:44:21.869Z,17.70
2022-10-01T21:46:56.197Z,17.80
2022-10-01T21:49:33.317Z,17.70
2022-10-01T21:52:11.958Z,17.80
2022-10-01T21:55:02.773Z,17.80
2022-10-01T21:57:48.410Z,17.80
2022-10-01T22:00:21.192Z,17.80
2022-10-01T22:03:01.054Z,17.80
2022-10-01T22:05:37.374Z,17.80
2022-10-01T22:08:25.022Z,17.80
2022-10-01T22:10:58.209Z,17.80
2022-10-01T22:13:31.482Z,17.80
2022-10-01T22:16:04.874Z,17.80
2022-10-01T22:18:37.944Z,17.90
2022-10-01T22:21:11.692Z,17.90
2022-10-01T22:23:45.839Z,17.90
2022-10-01T22:26:20.694Z,17.90
2022-10-01T22:28:52.993Z,17.80
2022-10-01T22:31:26.896Z,17.80
2022-10-01T22:34:00.701Z,17.80
2022-10-01T22:36:34.750Z,17.80
2022-10-01T22:39:08.621Z,17.90
2022-10-01T22:41:43.092Z,17.90
2022-10-01T22:44:15.038Z,17.90
2022-10-01T22:47:08.396Z,17.90
2022-10-01T22:49:50.178Z,17.90
2022-10-01T22:52:27.929Z,17.90
2022-10-01T22:55:13.925Z,17.90
2022-10-01T22:58:09.337Z,18.00
2022-10-01T23:00:45.592Z,17.90
2022-10-01T23:03:21.905Z,18.00
2022-10-01T23:06:01.848Z,18.00
2022-10-01T23:08:41.600Z,18.00
2022-10-01T23:11:21.872Z,18.00
2022-10-01T23:14:03.113Z,18.00
2022-10-01T23:16:39.286Z,18.00
2022-10-01T23:19:25.429Z,18.00
2022-10-01T23:22:00.186Z,18.00
2022-10-01T23:24:45.189Z,18.00
2022-10-01T23:27:24.443Z,18.00
2022-10-01T23:30:07.893Z,18.00
2022-10-01T23:32:51.989Z,18.00
2022-10-01T23:35:22.948Z,18.00
2022-10-01T23:38:13.346Z,18.00
2022-10-01T23:40:43.480Z,18.00
2022-10-01T23:43:26.723Z,18.00
2022-10-01T23:46:03.435Z,18.00
2022-10-01T23:48:35.580Z,17.90
2022-10-01T23:51:07.365Z,18.00
2022-10-01T23:53:42.114Z,17.90
2022-10-01T23:56:32.066Z,17.90
2022-10-01T23:59:05.597Z,17.90
